createdAt,value
2018-07-05T00:00:09.441Z,6.50
2018-07-05T00:02:49.327Z,5.77
2018-07-05T00:05:29.003Z,5.23
2018-07-05T00:08:08.631Z,6.03
2018-07-05T00:10:48.349Z,5.83
2018-07-05T00:13:29.189Z,5.77
2018-07-05T00:16:08.990Z,5.93
2018-07-05T00:18:49.795Z,5.90
2018-07-05T00:21:29.993Z,6.57
2018-07-05T00:24:09.767Z,6.33
2018-07-05T00:26:43.605Z,6.07
2018-07-05T00:29:24.773Z,6.43
2018-07-05T00:32:04.363Z,6.40
2018-07-05T00:34:44.138Z,6.87
2018-07-05T00:37:23.913Z,7.27
2018-07-05T00:40:03.762Z,6.93
2018-07-05T00:42:43.332Z,6.57
2018-07-05T00:45:23.173Z,6.50
2018-07-05T00:48:02.964Z,6.67
2018-07-05T00:50:42.758Z,6.60
2018-07-05T00:53:22.524Z,6.70
2018-07-05T00:56:02.342Z,7.27
2018-07-05T00:58:42.029Z,7.20
2018-07-05T01:01:21.758Z,7.33
2018-07-05T01:04:01.715Z,7.00
2018-07-05T01:06:41.542Z,7.63
2018-07-05T01:09:21.442Z,7.30
2018-07-05T01:12:01.252Z,7.93
2018-07-05T01:14:41.071Z,8.23
2018-07-05T01:17:20.842Z,7.37
2018-07-05T01:20:00.707Z,6.80
2018-07-05T01:22:40.412Z,7.70
2018-07-05T01:25:20.164Z,7.23
2018-07-05T01:27:59.931Z,6.57
2018-07-05T01:30:39.662Z,6.67
2018-07-05T01:33:19.523Z,7.37
2018-07-05T01:35:59.361Z,6.87
2018-07-05T01:38:39.207Z,7.37
2018-07-05T01:41:18.944Z,6.80
2018-07-05T01:43:58.733Z,6.43
2018-07-05T01:46:38.547Z,7.17
2018-07-05T01:49:18.521Z,6.27
2018-07-05T01:51:58.453Z,6.90
2018-07-05T01:54:38.306Z,6.60
2018-07-05T01:57:18.056Z,7.27
2018-07-05T01:59:57.683Z,6.30
2018-07-05T02:02:31.405Z,6.73
2018-07-05T02:05:11.293Z,6.43
2018-07-05T02:07:51.125Z,6.87
2018-07-05T02:10:30.844Z,6.87
2018-07-05T02:13:10.626Z,6.63
2018-07-05T02:15:50.409Z,5.90
2018-07-05T02:18:30.306Z,5.93
2018-07-05T02:21:10.255Z,6.30
2018-07-05T02:23:50.177Z,5.83
2018-07-05T02:26:29.960Z,6.23
2018-07-05T02:29:09.766Z,6.17
2018-07-05T02:31:49.602Z,6.27
2018-07-05T02:34:29.320Z,6.27
2018-07-05T02:37:13.087Z,6.00
2018-07-05T02:39:52.985Z,6.00
2018-07-05T02:42:32.712Z,6.37
2018-07-05T02:45:12.450Z,6.47
2018-07-05T02:47:52.052Z,6.87
2018-07-05T02:50:31.798Z,6.73
2018-07-05T02:53:11.492Z,6.93
2018-07-05T02:55:51.362Z,6.40
2018-07-05T02:58:31.314Z,6.10
2018-07-05T03:01:11.026Z,6.80
2018-07-05T03:03:50.806Z,7.83
2018-07-05T03:06:30.390Z,8.10
2018-07-05T03:09:10.244Z,8.37
2018-07-05T03:11:50.456Z,8.13
2018-07-05T03:14:30.556Z,8.07
2018-07-05T03:17:10.374Z,8.77
2018-07-05T03:19:50.230Z,8.23
2018-07-05T03:22:29.850Z,8.07
2018-07-05T03:25:09.706Z,7.53
2018-07-05T03:27:49.445Z,7.67
2018-07-05T03:30:29.201Z,8.23
2018-07-05T03:33:08.933Z,8.03
2018-07-05T03:35:48.599Z,7.77
2018-07-05T03:38:28.273Z,9.00
2018-07-05T03:41:07.977Z,8.10
2018-07-05T03:43:47.781Z,9.00
2018-07-05T03:46:27.543Z,8.93
2018-07-05T03:49:01.207Z,9.13
2018-07-05T03:51:41.262Z,9.00
2018-07-05T03:54:21.053Z,9.70
2018-07-05T03:57:00.877Z,9.67
2018-07-05T03:59:40.771Z,9.80
2018-07-05T04:02:20.580Z,10.50
2018-07-05T04:05:00.397Z,9.63
2018-07-05T04:07:40.226Z,9.57
2018-07-05T04:10:19.946Z,8.90
2018-07-05T04:13:01.244Z,10.43
2018-07-05T04:15:41.017Z,10.20
2018-07-05T04:18:20.812Z,10.10
2018-07-05T04:21:00.435Z,10.23
2018-07-05T04:23:40.218Z,9.77
2018-07-05T04:26:20.006Z,9.53
2018-07-05T04:28:59.812Z,10.10
2018-07-05T04:31:39.636Z,9.33
2018-07-05T04:34:19.419Z,10.37
2018-07-05T04:36:59.062Z,10.17
2018-07-05T04:39:38.748Z,9.73
2018-07-05T04:42:18.452Z,10.37
2018-07-05T04:44:58.244Z,9.60
2018-07-05T04:47:38.154Z,9.90
2018-07-05T04:50:17.956Z,9.63
2018-07-05T04:52:57.646Z,9.80
2018-07-05T04:55:37.421Z,9.33
2018-07-05T04:58:17.210Z,9.47
2018-07-05T05:00:57.024Z,10.13
2018-07-05T05:03:36.825Z,9.37
2018-07-05T05:06:16.618Z,9.20
2018-07-05T05:08:56.436Z,9.27
2018-07-05T05:11:36.190Z,9.33
2018-07-05T05:14:16.022Z,9.40
2018-07-05T05:16:55.964Z,9.07
2018-07-05T05:19:35.832Z,9.13
2018-07-05T05:22:15.749Z,9.63
2018-07-05T05:24:56.556Z,9.20
2018-07-05T05:27:36.381Z,10.10
2018-07-05T05:30:16.153Z,9.20
2018-07-05T05:32:55.843Z,9.93
2018-07-05T05:35:35.675Z,9.87
2018-07-05T05:38:15.410Z,9.93
2018-07-05T05:40:55.217Z,10.37
2018-07-05T05:43:34.997Z,9.77
2018-07-05T05:46:15.423Z,10.27
2018-07-05T05:48:55.059Z,10.37
2018-07-05T05:51:34.780Z,10.00
2018-07-05T05:54:14.501Z,9.60
2018-07-05T05:56:54.305Z,9.90
2018-07-05T05:59:34.046Z,10.07
2018-07-05T06:02:13.738Z,10.90
2018-07-05T06:04:53.478Z,10.40
2018-07-05T06:07:33.265Z,10.57
2018-07-05T06:10:13.145Z,10.83
2018-07-05T06:12:52.879Z,9.73
2018-07-05T06:15:32.549Z,11.00
2018-07-05T06:18:12.209Z,10.90
2018-07-05T06:20:51.767Z,10.03
2018-07-05T06:23:31.873Z,11.33
2018-07-05T06:26:11.695Z,11.17
2018-07-05T06:28:51.357Z,11.03
2018-07-05T06:31:31.200Z,11.30
2018-07-05T06:34:11.113Z,11.23
2018-07-05T06:36:51.240Z,11.07
2018-07-05T06:39:30.984Z,11.17
2018-07-05T06:42:10.704Z,11.53
2018-07-05T06:44:50.317Z,11.93
2018-07-05T06:47:30.173Z,11.37
2018-07-05T06:50:09.864Z,11.83
2018-07-05T06:52:49.686Z,11.93
2018-07-05T06:55:29.460Z,12.33
2018-07-05T06:58:09.234Z,11.77
2018-07-05T07:00:48.811Z,12.07
2018-07-05T07:03:28.720Z,12.20
2018-07-05T07:06:08.376Z,12.20
2018-07-05T07:08:47.872Z,12.47
2018-07-05T07:11:27.573Z,12.33
2018-07-05T07:14:07.250Z,12.40
2018-07-05T07:16:46.917Z,11.93
2018-07-05T07:19:26.449Z,11.97
2018-07-05T07:22:05.969Z,12.00
2018-07-05T07:24:45.656Z,12.20
2018-07-05T07:27:25.332Z,11.87
2018-07-05T07:30:04.901Z,11.77
2018-07-05T07:32:39.270Z,11.53
2018-07-05T07:35:19.228Z,12.20
2018-07-05T07:37:59.045Z,11.63
2018-07-05T07:40:38.774Z,11.40
2018-07-05T07:43:06.228Z,12.30
2018-07-05T07:45:33.684Z,11.90
2018-07-05T07:48:00.938Z,11.37
2018-07-05T07:50:28.288Z,11.53
2018-07-05T07:52:55.624Z,12.10
2018-07-05T07:55:22.985Z,11.27
2018-07-05T07:57:50.332Z,11.23
2018-07-05T08:00:17.693Z,10.57
2018-07-05T08:02:45.089Z,11.07
2018-07-05T08:05:12.423Z,11.13
2018-07-05T08:07:39.784Z,10.93
2018-07-05T08:10:07.375Z,10.97
2018-07-05T08:12:34.723Z,11.47
2018-07-05T08:15:02.079Z,9.97
2018-07-05T08:17:29.418Z,10.13
2018-07-05T08:19:56.748Z,9.90
2018-07-05T08:22:24.097Z,10.80
2018-07-05T08:24:51.448Z,11.53
2018-07-05T08:27:18.924Z,10.87
2018-07-05T08:29:47.520Z,10.17
2018-07-05T08:32:14.936Z,11.27
2018-07-05T08:34:42.333Z,10.07
2018-07-05T08:37:09.707Z,10.17
2018-07-05T08:39:37.090Z,11.30
2018-07-05T08:42:04.453Z,10.70
2018-07-05T08:44:31.781Z,10.70
2018-07-05T08:46:59.141Z,10.57
2018-07-05T08:49:26.505Z,10.17
2018-07-05T08:51:53.830Z,10.03
2018-07-05T08:54:21.145Z,10.43
2018-07-05T08:56:48.501Z,10.53
2018-07-05T08:59:15.839Z,10.10
2018-07-05T09:01:43.196Z,8.20
2018-07-05T09:04:10.528Z,8.70
2018-07-05T09:06:37.865Z,8.37
2018-07-05T09:09:05.718Z,7.17
2018-07-05T09:11:33.138Z,8.97
2018-07-05T09:14:00.472Z,7.70
2018-07-05T09:16:27.825Z,8.43
2018-07-05T09:18:55.221Z,7.73
2018-07-05T09:21:22.584Z,8.57
2018-07-05T09:23:49.992Z,7.77
2018-07-05T09:26:17.324Z,8.50
2018-07-05T09:28:44.660Z,8.20
2018-07-05T09:31:12.052Z,6.93
2018-07-05T09:33:39.372Z,7.57
2018-07-05T09:36:06.715Z,7.07
2018-07-05T09:38:34.079Z,8.30
2018-07-05T09:41:01.434Z,7.77
2018-07-05T09:43:28.775Z,7.87
2018-07-05T09:45:56.124Z,8.90
2018-07-05T09:48:23.549Z,8.90
2018-07-05T09:50:50.989Z,7.83
2018-07-05T09:53:18.355Z,7.70
2018-07-05T09:55:45.761Z,7.70
2018-07-05T09:58:13.155Z,7.67
2018-07-05T10:00:45.825Z,7.70
2018-07-05T10:03:13.185Z,8.07
2018-07-05T10:05:40.526Z,7.43
2018-07-05T10:08:07.867Z,7.90
2018-07-05T10:10:35.264Z,7.90
2018-07-05T10:13:02.677Z,7.17
2018-07-05T10:15:30.295Z,7.20
2018-07-05T10:17:57.631Z,10.57
2018-07-05T10:20:25.053Z,7.37
2018-07-05T10:22:52.423Z,7.47
2018-07-05T10:25:19.769Z,7.60
2018-07-05T10:27:47.133Z,7.50
2018-07-05T10:30:26.747Z,6.47
2018-07-05T10:33:06.342Z,6.67
2018-07-05T10:35:33.689Z,6.07
2018-07-05T10:38:02.258Z,5.80
2018-07-05T10:40:42.954Z,5.70
2018-07-05T10:43:22.473Z,5.60
2018-07-05T10:46:02.422Z,6.53
2018-07-05T10:48:42.122Z,6.10
2018-07-05T10:51:22.338Z,4.00
2018-07-05T10:54:02.485Z,5.50
2018-07-05T10:56:41.979Z,5.47
2018-07-05T10:59:21.517Z,4.60
2018-07-05T11:02:01.365Z,5.17
2018-07-05T11:04:40.996Z,5.80
2018-07-05T11:07:20.964Z,5.77
2018-07-05T11:10:01.058Z,5.70
2018-07-05T11:12:34.890Z,6.47
2018-07-05T11:15:14.935Z,6.43
2018-07-05T11:17:48.987Z,5.30
2018-07-05T11:20:28.942Z,4.60
2018-07-05T11:23:08.544Z,4.80
2018-07-05T11:25:48.046Z,4.93
2018-07-05T11:28:27.696Z,4.97
2018-07-05T11:31:07.180Z,6.40
2018-07-05T11:33:46.644Z,5.40
2018-07-05T11:36:26.218Z,4.70
2018-07-05T11:39:06.372Z,6.30
2018-07-05T11:41:46.475Z,5.70
2018-07-05T11:44:26.190Z,4.93
2018-07-05T11:47:05.950Z,5.90
2018-07-05T11:49:45.549Z,5.13
2018-07-05T11:52:25.119Z,4.83
2018-07-05T11:55:04.676Z,3.50
2018-07-05T11:57:44.207Z,4.13
2018-07-05T12:00:23.916Z,3.50
2018-07-05T12:03:03.481Z,3.70
2018-07-05T12:05:43.038Z,3.27
2018-07-05T12:08:22.738Z,3.40
2018-07-05T12:11:02.610Z,3.20
2018-07-05T12:13:42.303Z,3.43
2018-07-05T12:16:22.040Z,3.20
2018-07-05T12:19:01.807Z,3.67
2018-07-05T12:21:41.617Z,3.00
2018-07-05T12:24:21.414Z,2.20
2018-07-05T12:27:01.142Z,2.60
2018-07-05T12:29:41.106Z,2.93
2018-07-05T12:32:21.083Z,2.80
2018-07-05T12:35:00.942Z,3.43
2018-07-05T12:37:40.418Z,2.53
2018-07-05T12:40:20.010Z,2.77
2018-07-05T12:42:59.479Z,3.00
2018-07-05T12:45:39.114Z,2.60
2018-07-05T12:48:18.779Z,3.60
2018-07-05T12:50:58.316Z,2.83
2018-07-05T12:54:40.305Z,3.10
2018-07-05T12:57:19.983Z,2.93
2018-07-05T12:59:59.713Z,3.37
2018-07-05T13:02:39.564Z,2.90
2018-07-05T13:05:13.229Z,2.97
2018-07-05T13:07:53.169Z,2.83
2018-07-05T13:10:33.025Z,2.90
2018-07-05T13:13:12.745Z,3.00
2018-07-05T13:15:52.681Z,3.53
2018-07-05T13:18:32.473Z,3.87
2018-07-05T13:21:12.273Z,2.70
2018-07-05T13:23:52.042Z,2.70
2018-07-05T13:26:31.846Z,2.70
2018-07-05T13:29:11.509Z,2.60
2018-07-05T13:31:51.113Z,3.57
2018-07-05T13:34:30.822Z,3.33
2018-07-05T13:37:10.673Z,2.77
2018-07-05T13:39:50.307Z,2.70
2018-07-05T13:42:30.267Z,3.07
2018-07-05T13:45:10.018Z,2.60
2018-07-05T13:47:49.516Z,2.50
2018-07-05T13:50:29.057Z,2.53
2018-07-05T13:53:08.602Z,2.17
2018-07-05T13:55:48.207Z,2.87
2018-07-05T13:58:28.036Z,2.50
2018-07-05T14:01:07.668Z,2.80
2018-07-05T14:03:47.588Z,3.00
2018-07-05T14:06:27.357Z,3.07
2018-07-05T14:09:07.206Z,2.70
2018-07-05T14:11:46.837Z,3.10
2018-07-05T14:14:26.588Z,2.90
2018-07-05T14:17:06.319Z,2.50
2018-07-05T14:19:46.049Z,3.10
2018-07-05T14:22:25.771Z,2.93
2018-07-05T14:25:05.993Z,3.00
2018-07-05T14:27:45.652Z,3.43
2018-07-05T14:30:25.403Z,3.03
2018-07-05T14:33:05.248Z,3.00
2018-07-05T14:35:44.761Z,2.43
2018-07-05T14:38:24.240Z,2.97
2018-07-05T14:41:03.958Z,2.90
2018-07-05T14:43:43.566Z,2.80
2018-07-05T14:46:23.244Z,2.47
2018-07-05T14:49:03.003Z,2.90
2018-07-05T14:51:43.029Z,3.03
2018-07-05T14:54:16.757Z,2.93
2018-07-05T14:56:56.667Z,2.50
2018-07-05T14:59:30.317Z,2.50
2018-07-05T15:02:10.179Z,2.47
2018-07-05T15:04:49.928Z,2.80
2018-07-05T15:07:29.751Z,2.43
2018-07-05T15:10:09.488Z,2.40
2018-07-05T15:12:49.334Z,2.20
2018-07-05T15:15:28.886Z,2.37
2018-07-05T15:18:08.430Z,2.50
2018-07-05T15:20:48.016Z,2.57
2018-07-05T15:23:27.616Z,2.57
2018-07-05T15:26:07.398Z,2.60
2018-07-05T15:28:47.152Z,2.53
2018-07-05T15:31:27.375Z,2.00
2018-07-05T15:34:07.406Z,2.00
2018-07-05T15:36:47.152Z,2.10
2018-07-05T15:39:21.538Z,2.47
2018-07-05T15:42:01.320Z,2.17
2018-07-05T15:44:41.188Z,2.00
2018-07-05T15:47:21.112Z,2.00
2018-07-05T15:49:54.737Z,2.40
2018-07-05T15:52:34.300Z,1.80
2018-07-05T15:55:13.898Z,1.70
2018-07-05T15:57:53.474Z,1.90
2018-07-05T16:00:33.042Z,1.93
2018-07-05T16:03:12.730Z,1.90
2018-07-05T16:05:52.641Z,2.00
2018-07-05T16:08:32.446Z,1.87
2018-07-05T16:11:12.283Z,2.10
2018-07-05T16:13:52.042Z,1.90
2018-07-05T16:16:31.876Z,2.10
2018-07-05T16:19:11.667Z,2.03
2018-07-05T16:21:51.325Z,2.00
2018-07-05T16:24:31.150Z,1.70
2018-07-05T16:27:10.884Z,2.00
2018-07-05T16:29:50.663Z,2.20
2018-07-05T16:32:30.358Z,2.10
2018-07-05T16:35:10.203Z,2.30
2018-07-05T16:37:44.069Z,2.03
2018-07-05T16:40:23.918Z,2.20
2018-07-05T16:43:03.718Z,2.10
2018-07-05T16:45:43.361Z,1.83
2018-07-05T16:48:23.023Z,1.90
2018-07-05T16:51:02.653Z,1.80
2018-07-05T16:53:42.425Z,1.70
2018-07-05T16:56:22.135Z,1.80
2018-07-05T16:59:02.015Z,1.90
2018-07-05T17:01:41.659Z,1.80
2018-07-05T17:04:21.334Z,2.07
2018-07-05T17:07:01.300Z,1.93
2018-07-05T17:09:41.065Z,1.80
2018-07-05T17:12:20.573Z,1.67
2018-07-05T17:15:00.142Z,1.90
2018-07-05T17:17:39.688Z,1.70
2018-07-05T17:20:19.178Z,1.83
2018-07-05T17:22:58.716Z,2.10
2018-07-05T17:25:38.280Z,1.80
2018-07-05T17:28:18.025Z,1.80
2018-07-05T17:30:57.867Z,1.60
2018-07-05T17:33:37.621Z,1.67
2018-07-05T17:36:17.586Z,1.70
2018-07-05T17:38:51.637Z,1.80
2018-07-05T17:41:31.215Z,1.73
2018-07-05T17:44:10.925Z,2.03
2018-07-05T17:46:50.607Z,1.77
2018-07-05T17:49:30.139Z,1.70
2018-07-05T17:52:09.748Z,1.70
2018-07-05T17:54:49.322Z,1.87
2018-07-05T17:57:28.858Z,1.50
2018-07-05T18:00:08.412Z,1.57
2018-07-05T18:02:48.016Z,1.40
2018-07-05T18:05:27.562Z,1.47
2018-07-05T18:08:07.136Z,1.43
2018-07-05T18:10:46.671Z,1.60
2018-07-05T18:13:26.266Z,1.20
2018-07-05T18:16:05.869Z,1.40
2018-07-05T18:18:45.410Z,1.43
2018-07-05T18:21:25.727Z,1.50
2018-07-05T18:24:05.266Z,1.60
2018-07-05T18:26:44.796Z,1.20
2018-07-05T18:29:24.704Z,1.30
2018-07-05T18:32:04.254Z,1.50
2018-07-05T18:34:43.985Z,1.13
2018-07-05T18:37:23.708Z,1.30
2018-07-05T18:40:03.348Z,1.20
2018-07-05T18:42:43.069Z,1.30
2018-07-05T18:45:22.745Z,1.30
2018-07-05T18:48:02.556Z,1.43
2018-07-05T18:50:42.332Z,1.40
2018-07-05T18:53:22.071Z,1.30
2018-07-05T18:56:01.957Z,1.20
2018-07-05T18:58:41.730Z,1.20
2018-07-05T19:01:21.636Z,1.10
2018-07-05T19:04:01.359Z,1.50
2018-07-05T19:06:41.113Z,1.27
2018-07-05T19:09:20.788Z,1.20
2018-07-05T19:12:00.737Z,1.20
2018-07-05T19:14:40.572Z,1.23
2018-07-05T19:17:20.339Z,1.30
2018-07-05T19:20:00.055Z,1.20
2018-07-05T19:22:40.141Z,1.10
2018-07-05T19:25:20.014Z,1.13
2018-07-05T19:27:59.776Z,1.40
2018-07-05T19:30:39.556Z,1.30
2018-07-05T19:33:19.543Z,1.50
2018-07-05T19:35:59.222Z,1.17
2018-07-05T19:38:38.998Z,1.27
2018-07-05T19:41:18.714Z,1.30
2018-07-05T19:43:52.498Z,1.40
2018-07-05T19:46:32.362Z,1.20
2018-07-05T19:49:12.194Z,1.40
2018-07-05T19:51:51.984Z,1.10
2018-07-05T19:54:31.884Z,1.30
2018-07-05T19:57:11.660Z,1.50
2018-07-05T19:59:51.475Z,1.30
2018-07-05T20:02:31.283Z,1.20
2018-07-05T20:05:11.149Z,1.40
2018-07-05T20:07:50.949Z,1.27
2018-07-05T20:10:30.877Z,1.57
2018-07-05T20:13:10.498Z,1.17
2018-07-05T20:15:50.234Z,1.03
2018-07-05T20:18:29.994Z,1.20
2018-07-05T20:21:09.735Z,1.10
2018-07-05T20:23:49.559Z,1.20
2018-07-05T20:26:29.483Z,1.40
2018-07-05T20:29:09.332Z,1.27
2018-07-05T20:31:43.076Z,1.30
2018-07-05T20:34:22.844Z,1.27
2018-07-05T20:37:02.487Z,1.40
2018-07-05T20:39:42.536Z,1.40
2018-07-05T20:42:22.268Z,1.20
2018-07-05T20:45:02.102Z,1.30
2018-07-05T20:47:41.651Z,1.30
2018-07-05T20:50:21.316Z,1.57
2018-07-05T20:53:01.153Z,1.33
2018-07-05T20:55:40.974Z,1.50
2018-07-05T20:58:20.734Z,1.40
2018-07-05T21:01:00.563Z,1.73
2018-07-05T21:03:40.390Z,1.80
2018-07-05T21:06:20.188Z,1.80
2018-07-05T21:08:59.816Z,1.90
2018-07-05T21:11:39.589Z,2.10
2018-07-05T21:14:19.450Z,1.73
2018-07-05T21:16:59.226Z,2.00
2018-07-05T21:19:39.101Z,2.07
2018-07-05T21:22:18.863Z,1.90
2018-07-05T21:24:58.556Z,2.20
2018-07-05T21:27:38.209Z,2.37
2018-07-05T21:30:17.990Z,2.20
2018-07-05T21:32:57.824Z,2.53
2018-07-05T21:35:31.577Z,2.40
2018-07-05T21:38:11.511Z,2.73
2018-07-05T21:40:51.169Z,2.60
2018-07-05T21:43:30.981Z,2.70
2018-07-05T21:46:10.923Z,2.57
2018-07-05T21:48:50.710Z,2.80
2018-07-05T21:51:30.783Z,2.60
2018-07-05T21:54:10.589Z,2.63
2018-07-05T21:56:50.770Z,2.60
2018-07-05T21:59:30.550Z,2.80
2018-07-05T22:02:10.222Z,2.83
2018-07-05T22:04:50.113Z,3.13
2018-07-05T22:07:29.866Z,2.73
2018-07-05T22:10:09.898Z,3.20
2018-07-05T22:12:49.761Z,3.20
2018-07-05T22:15:29.606Z,3.10
2018-07-05T22:18:14.862Z,3.30
2018-07-05T22:21:01.390Z,3.27
2018-07-05T22:23:46.614Z,3.37
2018-07-05T22:26:36.697Z,3.37
2018-07-05T22:29:21.792Z,3.40
2018-07-05T22:32:01.572Z,3.53
2018-07-05T22:34:41.422Z,3.73
2018-07-05T22:37:21.189Z,3.63
2018-07-05T22:40:00.865Z,3.50
2018-07-05T22:42:40.611Z,3.83
2018-07-05T22:45:20.417Z,3.60
2018-07-05T22:48:00.229Z,3.63
2018-07-05T22:50:39.921Z,3.90
2018-07-05T22:53:19.681Z,4.10
2018-07-05T22:55:59.621Z,3.97
2018-07-05T22:58:39.311Z,3.97
2018-07-05T23:01:18.963Z,3.80
2018-07-05T23:03:58.559Z,4.00
2018-07-05T23:06:32.335Z,4.10
2018-07-05T23:09:12.229Z,4.17
2018-07-05T23:11:51.969Z,4.03
2018-07-05T23:14:31.749Z,4.10
2018-07-05T23:17:11.539Z,4.00
2018-07-05T23:19:51.202Z,4.27
2018-07-05T23:22:30.784Z,4.20
2018-07-05T23:25:10.566Z,4.30
2018-07-05T23:27:50.616Z,4.47
2018-07-05T23:30:30.441Z,4.90
2018-07-05T23:33:10.286Z,5.00
2018-07-05T23:35:49.937Z,5.10
2018-07-05T23:38:29.785Z,5.03
2018-07-05T23:41:09.445Z,5.70
2018-07-05T23:43:49.255Z,5.80
2018-07-05T23:46:29.156Z,5.67
2018-07-05T23:49:08.885Z,6.10
2018-07-05T23:51:48.605Z,5.70
2018-07-05T23:54:29.391Z,6.00
2018-07-05T23:57:09.203Z,6.30
2018-07-05T23:59:48.901Z,6.33
